CheckWX is a tool to help pilots better visualize weather data.  It is not intended as a substitute for an official pre-flight weather briefing.

08:08:36 UTC

KSDY METAR
Sidney-Richland Regional Airport
Sidney, Montana, USA
Current

1 hour ago

KSDY 190656Z AUTO 31010KT 10SM CLR M24/M28 A3054 RMK AO2 SLP733 T12391278 411781244 FZRANO
Observed
Jan-19 @ 06:56 UTC
Wind
  • 310° at 10 KTS
Visibility
10 SM
Flight Rules
VFR
Cloud Levels
  • Clear skies
Temperature
-24°C / -11°F
Dewpoint
-28°C / -18°F
Humidity
70%
Altimeter
30.54" Hg
Pressure
1034.22 hPa
Previous

2 hours ago

KSDY 190556Z AUTO 31007KT 10SM CLR M23/M28 A3052 RMK AO2 SLP729 6//// T12331278 11206 21244 FZRANO
Observed
Jan-19 @ 05:56 UTC
Wind
  • 310° at 7 KTS
Visibility
10 SM
Flight Rules
VFR
Cloud Levels
  • Clear skies
Temperature
-23°C / -9°F
Dewpoint
-28°C / -18°F
Humidity
64%
Altimeter
30.52" Hg
Pressure
1033.52 hPa
Previous

3 hours ago

KSDY 190456Z AUTO 31009KT 10SM CLR M23/M27 A3051 RMK AO2 SLP725 T12331272 FZRANO
Observed
Jan-19 @ 04:56 UTC
Wind
  • 310° at 9 KTS
Visibility
10 SM
Flight Rules
VFR
Cloud Levels
  • Clear skies
Temperature
-23°C / -9°F
Dewpoint
-27°C / -17°F
Humidity
70%
Altimeter
30.51" Hg
Pressure
1033.22 hPa